Time;durP1;ratioP1;P1;durP2;ratioP2;P2;SDS_P1;SDS_P2;PMS_P1;PMS_P2;Temp;Humidity;BMP_temperature;BMP_pressure;BME280_temperature;BME280_humidity;BME280_pressure;Samples;Min_cycle;Max_cycle;Signal;HPM_P1;HPM_P2
2022/04/19 00:01:42;;;;;;;11.55;9.50;;;;;;;10.01;59.46;101445.50;5004576;28;20022;-61
2022/04/19 00:04:07;;;;;;;16.80;10.18;;;;;;;9.93;59.60;101448.91;5004057;28;20026;-60
2022/04/19 00:06:32;;;;;;;11.85;9.77;;;;;;;9.93;59.80;101435.66;5004774;28;20496;-61
2022/04/19 00:08:58;;;;;;;11.88;10.35;;;;;;;9.91;60.02;101434.16;5004912;28;20106;-61
2022/04/19 00:11:23;;;;;;;12.30;9.80;;;;;;;9.83;60.31;101428.75;5002880;28;20030;-60
2022/04/19 00:13:48;;;;;;;16.00;9.80;;;;;;;9.75;60.55;101426.00;5003909;28;20452;-61
2022/04/19 00:16:16;;;;;;;14.45;10.40;;;;;;;9.76;60.69;101423.22;5002909;28;20029;-60
2022/04/19 00:18:41;;;;;;;13.68;10.60;;;;;;;9.71;60.95;101430.78;5003683;28;20033;-61
2022/04/19 00:21:07;;;;;;;15.40;11.13;;;;;;;9.70;60.86;101433.59;5011926;28;20072;-61
2022/04/19 00:23:32;;;;;;;17.77;11.02;;;;;;;9.67;60.79;101433.91;5010659;28;20075;-61
2022/04/19 00:25:57;;;;;;;22.52;10.98;;;;;;;9.66;60.97;101432.22;5005907;28;20547;-61
2022/04/19 00:28:23;;;;;;;15.55;10.07;;;;;;;9.65;60.84;101431.41;5002838;28;20026;-61
2022/04/19 00:30:49;;;;;;;14.10;10.68;;;;;;;9.60;60.92;101423.06;5005559;28;20048;-61
2022/04/19 00:33:15;;;;;;;14.90;11.38;;;;;;;9.51;60.79;101424.78;5000625;28;20026;-61
2022/04/19 00:35:40;;;;;;;18.13;12.48;;;;;;;9.48;60.72;101426.88;5007875;28;20037;-60
2022/04/19 00:38:05;;;;;;;15.18;12.43;;;;;;;9.45;60.70;101429.84;5006023;28;20655;-61
2022/04/19 00:40:31;;;;;;;19.40;12.02;;;;;;;9.41;60.82;101426.66;5007619;28;20030;-61
2022/04/19 00:42:57;;;;;;;15.63;11.73;;;;;;;9.36;60.82;101430.75;5008795;28;20029;-61
2022/04/19 00:45:23;;;;;;;16.60;12.40;;;;;;;9.34;60.99;101424.75;5006273;28;20030;-61
2022/04/19 00:47:50;;;;;;;18.05;13.50;;;;;;;9.28;60.84;101434.97;5011805;28;20030;-61
2022/04/19 00:50:15;;;;;;;19.88;12.65;;;;;;;9.22;61.23;101432.06;5010078;28;20486;-61
2022/04/19 00:52:43;;;;;;;15.40;12.68;;;;;;;9.18;61.05;101430.69;5010261;28;20052;-60
2022/04/19 00:55:09;;;;;;;17.88;12.77;;;;;;;9.09;60.86;101428.91;5010812;28;20034;-60
2022/04/19 00:57:37;;;;;;;18.73;12.52;;;;;;;9.00;60.97;101431.47;5007493;28;20037;-61
2022/04/19 01:00:05;;;;;;;16.77;12.07;;;;;;;9.03;60.87;101426.88;5006798;28;20030;-61
2022/04/19 01:02:31;;;;;;;15.05;12.18;;;;;;;8.97;61.32;101426.47;5008234;28;20029;-61
2022/04/19 01:04:56;;;;;;;18.63;12.93;;;;;;;8.91;61.47;101427.03;5008239;28;20065;-61
2022/04/19 01:07:22;;;;;;;16.95;12.63;;;;;;;8.81;61.81;101431.53;5006963;28;20045;-61
2022/04/19 01:09:48;;;;;;;22.73;13.05;;;;;;;8.63;61.87;101430.59;5011146;28;20044;-61
2022/04/19 01:15:05;;;;;;;16.00;12.45;;;;;;;8.67;61.81;101429.34;4987347;28;20168;-60
2022/04/19 01:17:32;;;;;;;19.42;14.32;;;;;;;8.69;61.68;101422.94;5006669;28;20401;-61
2022/04/19 01:19:57;;;;;;;20.60;13.98;;;;;;;8.74;61.69;101414.56;5011203;28;20492;-61
2022/04/19 01:22:24;;;;;;;18.63;14.68;;;;;;;8.73;61.34;101417.34;5010100;28;20120;-61
2022/04/19 01:24:49;;;;;;;18.13;14.05;;;;;;;8.67;61.15;101413.44;5015918;28;20109;-61
2022/04/19 01:27:14;;;;;;;17.52;14.40;;;;;;;8.69;60.73;101408.88;5010652;28;20116;-61
2022/04/19 01:29:40;;;;;;;18.50;14.13;;;;;;;8.66;60.73;101406.47;5011570;28;20473;-61
2022/04/19 01:32:07;;;;;;;18.90;14.60;;;;;;;8.61;60.73;101411.38;5013322;28;20028;-61
2022/04/19 01:34:32;;;;;;;18.73;13.80;;;;;;;8.54;60.90;101403.19;5012518;28;20160;-61
2022/04/19 01:36:57;;;;;;;20.05;14.32;;;;;;;8.54;61.01;101407.66;5010827;28;20108;-60
2022/04/19 01:42:07;;;;;;;17.85;13.98;;;;;;;8.41;61.53;101404.50;5006812;28;20484;-61
2022/04/19 01:44:33;;;;;;;16.38;14.05;;;;;;;8.47;61.64;101409.19;5009294;28;20033;-61
2022/04/19 01:47:00;;;;;;;22.60;15.25;;;;;;;8.44;61.88;101404.19;5009051;28;20044;-61
2022/04/19 01:49:25;;;;;;;21.35;15.77;;;;;;;8.48;61.86;101405.59;5007473;28;20116;-61
2022/04/19 01:51:51;;;;;;;19.92;15.48;;;;;;;8.52;61.76;101399.84;5016160;28;20093;-60
2022/04/19 01:54:16;;;;;;;18.83;15.18;;;;;;;8.46;61.81;101400.44;5018367;28;20026;-60
2022/04/19 01:56:43;;;;;;;19.85;15.02;;;;;;;8.40;61.62;101398.34;5008724;28;20149;-61
2022/04/19 01:59:08;;;;;;;17.23;13.65;;;;;;;8.25;61.70;101403.22;5007311;28;20041;-60
2022/04/19 02:01:34;;;;;;;20.85;15.43;;;;;;;8.13;61.71;101395.59;5012497;28;20030;-61
2022/04/19 02:03:59;;;;;;;19.95;15.00;;;;;;;8.14;61.77;101405.19;5013104;28;20269;-61
2022/04/19 02:06:24;;;;;;;16.77;14.10;;;;;;;7.97;61.91;101412.00;5007570;28;20033;-60
2022/04/19 02:08:49;;;;;;;19.95;14.15;;;;;;;7.88;62.24;101411.03;5008786;28;20029;-61
2022/04/19 02:11:15;;;;;;;17.42;13.35;;;;;;;7.60;62.34;101399.47;5004945;28;20497;-60
2022/04/19 02:13:40;;;;;;;14.23;12.35;;;;;;;7.46;62.28;101405.97;5014335;28;20029;-60
2022/04/19 02:16:06;;;;;;;16.45;12.25;;;;;;;7.36;62.68;101410.41;5006321;28;20068;-60
2022/04/19 02:18:32;;;;;;;15.27;12.30;;;;;;;7.29;63.08;101406.66;5011126;28;20036;-61
2022/04/19 02:21:00;;;;;;;15.05;11.93;;;;;;;7.34;63.73;101404.44;5008707;28;20037;-60
2022/04/19 02:23:26;;;;;;;15.75;12.40;;;;;;;7.25;63.75;101404.41;5010291;28;20462;-60
2022/04/19 02:25:55;;;;;;;17.90;13.10;;;;;;;7.32;64.18;101402.91;5008048;28;20030;-61
2022/04/19 02:28:21;;;;;;;16.42;13.50;;;;;;;7.45;64.41;101400.84;5011233;28;20489;-60
2022/04/19 02:30:46;;;;;;;17.10;13.75;;;;;;;7.53;64.63;101405.47;5009081;28;20113;-61
2022/04/19 02:33:12;;;;;;;19.42;14.40;;;;;;;7.59;64.68;101400.44;5005757;28;20466;-60
2022/04/19 02:35:38;;;;;;;16.92;13.43;;;;;;;7.63;65.07;101401.00;5004132;28;20050;-61
2022/04/19 02:38:03;;;;;;;16.63;13.68;;;;;;;7.63;65.03;101396.56;5003960;28;20018;-60
2022/04/19 02:40:28;;;;;;;19.58;14.32;;;;;;;7.67;65.39;101395.31;5007298;28;20040;-61
2022/04/19 02:42:55;;;;;;;19.55;14.48;;;;;;;7.73;65.59;101386.81;5007878;28;20014;-61
2022/04/19 02:45:21;;;;;;;20.73;14.68;;;;;;;7.78;65.64;101395.16;5004421;28;20041;-61
2022/04/19 02:48:03;;;;;;;20.38;14.35;;;;;;;7.78;65.74;101387.22;5006606;28;20060;-61
2022/04/19 02:50:28;;;;;;;19.92;14.85;;;;;;;7.89;65.77;101391.56;5007310;28;20029;-60
2022/04/19 02:52:53;;;;;;;20.00;14.80;;;;;;;7.87;65.75;101388.22;5008049;28;20366;-61
2022/04/19 02:55:19;;;;;;;18.75;14.38;;;;;;;7.90;65.66;101387.09;5019851;28;20296;-61
2022/04/19 02:57:44;;;;;;;18.58;14.27;;;;;;;7.92;65.69;101387.78;5004282;28;20037;-60
2022/04/19 03:00:10;;;;;;;18.92;14.68;;;;;;;7.92;65.82;101393.09;5012261;28;20463;-61
2022/04/19 03:02:35;;;;;;;25.05;15.85;;;;;;;7.92;65.65;101387.78;5006189;28;20032;-60
2022/04/19 03:05:01;;;;;;;18.90;14.77;;;;;;;7.91;65.86;101391.41;5012271;28;20124;-60
2022/04/19 03:07:26;;;;;;;18.88;14.68;;;;;;;7.93;65.76;101390.31;5007902;28;20501;-60
2022/04/19 03:09:51;;;;;;;21.33;15.98;;;;;;;7.89;65.61;101388.91;5006225;28;20477;-60
2022/04/19 03:12:16;;;;;;;32.17;16.58;;;;;;;7.86;65.53;101389.19;5005855;28;20041;-60
2022/04/19 03:14:42;;;;;;;24.65;15.68;;;;;;;7.89;65.54;101380.97;5014414;28;20517;-59
2022/04/19 03:17:07;;;;;;;20.90;15.38;;;;;;;7.89;65.31;101386.28;5007537;28;20068;-61
2022/04/19 03:19:33;;;;;;;19.67;15.15;;;;;;;7.91;65.18;101392.25;5012749;28;20033;-61
2022/04/19 03:21:59;;;;;;;23.92;14.95;;;;;;;7.90;65.25;101387.09;5015218;28;20021;-61
2022/04/19 03:29:52;;;;;;;21.42;15.65;;;;;;;7.82;65.12;101379.03;5017606;28;20073;-61
2022/04/19 03:32:19;;;;;;;21.75;15.82;;;;;;;7.82;64.97;101384.34;5019007;28;20021;-61
2022/04/19 03:34:45;;;;;;;18.90;15.18;;;;;;;7.82;65.09;101387.81;5009764;28;20033;-60
2022/04/19 03:37:10;;;;;;;20.60;14.25;;;;;;;7.76;65.25;101381.25;5015096;28;20022;-61
2022/04/19 03:39:35;;;;;;;20.63;14.88;;;;;;;7.65;65.22;101389.31;5007541;28;20057;-61
2022/04/19 03:42:01;;;;;;;19.00;14.95;;;;;;;7.51;65.40;101388.88;5018358;28;20029;-60
2022/04/19 03:44:26;;;;;;;22.58;15.23;;;;;;;7.41;65.40;101384.41;5005983;28;20049;-61
2022/04/19 03:47:07;;;;;;;20.67;15.53;;;;;;;7.35;65.68;101386.78;5015495;28;20033;-60
2022/04/19 03:49:34;;;;;;;23.43;15.53;;;;;;;7.29;65.83;101388.16;5012351;28;20052;-61
2022/04/19 03:52:00;;;;;;;20.60;15.37;;;;;;;7.28;66.07;101386.50;5014431;28;20552;-61
2022/04/19 03:54:25;;;;;;;22.03;15.43;;;;;;;7.32;66.40;101381.75;5021285;28;20025;-60
2022/04/19 03:56:50;;;;;;;31.00;15.83;;;;;;;7.37;66.58;101384.84;5026390;28;20064;-61
2022/04/19 03:59:16;;;;;;;23.27;15.73;;;;;;;7.35;66.59;101386.78;5021124;28;20560;-61
2022/04/19 04:01:41;;;;;;;21.20;14.97;;;;;;;7.32;66.73;101381.75;5010537;28;20029;-60
2022/04/19 04:04:07;;;;;;;22.37;15.40;;;;;;;7.29;66.96;101384.69;5008132;28;20469;-60
2022/04/19 04:06:35;;;;;;;21.03;15.57;;;;;;;7.29;67.21;101387.31;5007800;28;20029;-61
2022/04/19 04:09:00;;;;;;;22.13;15.20;;;;;;;7.28;67.14;101385.66;5005223;28;20224;-61
2022/04/19 04:11:25;;;;;;;24.00;15.70;;;;;;;7.31;67.37;101385.38;5007192;28;20475;-60
2022/04/19 04:13:51;;;;;;;23.80;15.53;;;;;;;7.31;67.40;101386.22;5004247;28;20075;-61
2022/04/19 04:16:16;;;;;;;20.03;14.57;;;;;;;7.32;67.09;101389.69;5006801;28;20037;-61
2022/04/19 04:18:41;;;;;;;20.47;15.43;;;;;;;7.32;67.19;101381.75;5003043;28;20021;-60
2022/04/19 04:21:07;;;;;;;21.47;15.33;;;;;;;7.32;67.18;101387.06;5006332;28;20033;-61
2022/04/19 04:23:33;;;;;;;22.07;15.17;;;;;;;7.33;67.32;101386.09;5013653;28;20490;-61
2022/04/19 04:25:58;;;;;;;23.50;15.70;;;;;;;7.32;67.31;101390.53;5018713;28;20030;-61
2022/04/19 04:28:24;;;;;;;23.00;15.83;;;;;;;7.31;67.58;101391.50;5002845;28;20033;-61
2022/04/19 04:30:49;;;;;;;23.10;15.93;;;;;;;7.32;67.54;101387.06;5007918;28;20506;-61
2022/04/19 04:33:15;;;;;;;24.80;15.82;;;;;;;7.30;67.33;101389.00;5010739;28;20204;-61
2022/04/19 04:35:40;;;;;;;24.63;15.80;;;;;;;7.32;67.38;101387.06;5011181;28;20489;-60
2022/04/19 04:38:05;;;;;;;23.83;16.77;;;;;;;7.32;67.26;101395.81;5004227;28;20041;-61
2022/04/19 04:40:30;;;;;;;23.43;15.43;;;;;;;7.32;67.29;101400.25;5008496;28;20378;-61
2022/04/19 04:42:56;;;;;;;23.10;15.77;;;;;;;7.29;67.22;101395.25;5006732;28;20034;-61
2022/04/19 04:45:21;;;;;;;32.80;16.23;;;;;;;7.29;67.22;101404.00;5005288;28;20032;-60
2022/04/19 04:50:30;;;;;;;21.27;15.97;;;;;;;7.22;67.45;101394.94;5005106;28;20048;-60
2022/04/19 04:52:55;;;;;;;36.13;16.60;;;;;;;7.23;67.53;101396.63;5007255;28;20400;-61
2022/04/19 04:55:21;;;;;;;26.83;15.70;;;;;;;7.23;67.55;101401.06;5007496;28;20413;-61
2022/04/19 04:57:46;;;;;;;22.57;15.67;;;;;;;7.22;67.73;101404.66;5003877;28;20053;-61
2022/04/19 05:00:12;;;;;;;19.30;15.40;;;;;;;7.19;67.97;101399.66;5004255;28;20377;-61
2022/04/19 05:02:38;;;;;;;21.83;16.77;;;;;;;7.30;67.80;101399.56;5001185;28;20029;-61
2022/04/19 05:05:04;;;;;;;26.83;17.30;;;;;;;7.32;67.74;101410.81;5010183;28;20035;-61
2022/04/19 05:07:29;;;;;;;24.67;15.73;;;;;;;7.38;67.84;101402.34;5004196;28;20136;-61
2022/04/19 05:09:58;;;;;;;22.47;16.03;;;;;;;7.38;67.83;101408.47;5003758;28;20050;-61
2022/04/19 05:12:24;;;;;;;22.90;16.08;;;;;;;7.44;67.78;101399.16;5004150;28;20026;-61
2022/04/19 05:14:49;;;;;;;24.67;17.20;;;;;;;7.45;67.50;101404.31;5004889;28;20430;-61
2022/04/19 05:17:14;;;;;;;22.37;16.17;;;;;;;7.49;67.16;101410.16;5005660;28;20374;-60
2022/04/19 05:19:40;;;;;;;23.67;16.30;;;;;;;7.46;67.54;101395.41;5004433;28;20433;-61
2022/04/19 05:22:05;;;;;;;21.67;16.30;;;;;;;7.58;67.62;101412.00;5008117;28;20030;-61
2022/04/19 05:24:30;;;;;;;30.27;17.70;;;;;;;7.66;67.82;101404.22;5012671;28;20026;-60
2022/04/19 05:26:56;;;;;;;26.97;17.43;;;;;;;7.74;67.71;101414.91;5011914;28;20053;-61
2022/04/19 05:29:21;;;;;;;42.33;17.40;;;;;;;7.86;67.73;101406.88;5004447;28;20034;-61
2022/04/19 05:31:46;;;;;;;26.43;16.93;;;;;;;7.90;67.58;101408.25;5008154;28;20053;-61
2022/04/19 05:34:12;;;;;;;25.90;16.50;;;;;;;7.99;67.70;101402.97;5010234;28;20017;-60
2022/04/19 05:36:37;;;;;;;22.33;17.00;;;;;;;8.03;67.70;101404.34;5005467;28;20580;-61
2022/04/19 05:39:03;;;;;;;24.00;17.20;;;;;;;8.20;68.20;101407.25;5008192;28;20021;-61
2022/04/19 05:41:29;;;;;;;23.90;16.92;;;;;;;8.33;67.83;101410.44;5004219;28;20029;-61
2022/04/19 05:43:54;;;;;;;25.88;17.17;;;;;;;8.40;68.11;101403.66;5010492;28;20496;-60
2022/04/19 05:46:20;;;;;;;26.48;17.00;;;;;;;8.44;67.58;101398.91;5003975;28;20034;-61
2022/04/19 05:48:45;;;;;;;23.85;16.33;;;;;;;8.59;67.42;101400.94;5005442;28;20029;-60
2022/04/19 05:51:12;;;;;;;26.70;17.17;;;;;;;8.67;67.13;101406.38;5005784;28;20040;-61
2022/04/19 05:53:41;;;;;;;26.23;16.83;;;;;;;8.72;66.94;101403.28;5011913;28;20013;-61
2022/04/19 05:56:06;;;;;;;33.42;17.40;;;;;;;8.85;67.09;101401.13;5009997;28;20419;-60
2022/04/19 05:58:31;;;;;;;23.38;17.13;;;;;;;8.94;67.10;101405.53;5010235;28;20191;-60
2022/04/19 06:00:57;;;;;;;25.70;16.42;;;;;;;9.00;66.42;101410.28;5010467;28;20441;-60
2022/04/19 06:06:06;;;;;;;28.83;17.77;;;;;;;9.37;66.40;101414.69;5010515;28;20052;-60
2022/04/19 06:08:32;;;;;;;24.13;16.63;;;;;;;9.53;65.53;101412.19;5010846;28;20401;-60
2022/04/19 06:10:57;;;;;;;23.80;15.40;;;;;;;9.63;65.24;101412.16;5008462;28;20025;-60
2022/04/19 06:13:23;;;;;;;26.23;16.60;;;;;;;9.78;64.75;101415.09;5007656;28;20034;-62
2022/04/19 06:15:48;;;;;;;23.67;15.57;;;;;;;9.88;64.07;101423.84;5006007;28;20119;-61
2022/04/19 06:18:13;;;;;;;27.77;15.23;;;;;;;10.02;63.34;101423.28;5002716;28;20112;-62
2022/04/19 06:20:40;;;;;;;25.70;15.27;;;;;;;10.16;62.77;101430.72;5003154;28;20559;-62
2022/04/19 06:23:06;;;;;;;27.23;15.48;;;;;;;10.23;62.27;101426.50;5004765;28;20095;-61
2022/04/19 06:25:31;;;;;;;21.98;15.63;;;;;;;10.33;61.44;101441.50;5008425;28;20489;-62
2022/04/19 06:27:57;;;;;;;22.75;14.65;;;;;;;10.42;61.02;101429.97;5010766;28;20072;-62
2022/04/19 06:30:23;;;;;;;23.35;15.38;;;;;;;10.54;60.93;101428.72;5011232;28;20033;-62
2022/04/19 06:32:48;;;;;;;21.83;15.00;;;;;;;10.65;60.51;101424.94;5011213;28;20030;-62
2022/04/19 06:35:14;;;;;;;26.02;14.75;;;;;;;10.75;60.13;101431.84;5007424;28;20017;-62
2022/04/19 06:37:40;;;;;;;23.77;15.48;;;;;;;10.85;59.75;101429.88;5004076;28;20033;-62
2022/04/19 06:40:06;;;;;;;31.10;15.10;;;;;;;10.92;59.63;101437.22;5001602;28;20026;-61
2022/04/19 06:42:32;;;;;;;31.90;15.32;;;;;;;11.01;59.80;101434.47;5004445;28;20034;-61
2022/04/19 06:44:58;;;;;;;25.40;15.32;;;;;;;11.08;59.61;101432.84;5009275;28;20137;-62
2022/04/19 06:47:26;;;;;;;26.98;15.45;;;;;;;11.16;59.25;101426.72;5005393;28;20030;-62
2022/04/19 06:49:52;;;;;;;21.60;14.85;;;;;;;11.26;59.11;101435.38;5001306;28;20269;-61
2022/04/19 06:52:18;;;;;;;24.25;15.57;;;;;;;11.37;59.13;101436.94;5002097;28;20025;-61
2022/04/19 06:54:43;;;;;;;25.08;15.10;;;;;;;11.45;58.46;101434.28;5002471;28;20033;-61
2022/04/19 06:57:09;;;;;;;23.40;15.40;;;;;;;11.57;58.45;101434.84;4999709;28;20032;-62
2022/04/19 06:59:34;;;;;;;25.13;15.05;;;;;;;11.65;57.70;101437.53;5001215;28;20025;-61
2022/04/19 07:01:59;;;;;;;22.02;14.75;;;;;;;11.75;57.52;101441.69;5001311;28;20032;-61
2022/04/19 07:04:24;;;;;;;21.42;14.90;;;;;;;11.80;57.05;101435.91;5011770;28;20562;-61
2022/04/19 07:06:50;;;;;;;22.67;14.48;;;;;;;11.79;56.08;101443.06;5004999;28;20520;-61
2022/04/19 07:09:15;;;;;;;25.95;14.57;;;;;;;11.87;56.74;101441.44;5000601;28;20029;-61
2022/04/19 07:11:41;;;;;;;30.33;15.43;;;;;;;11.99;56.38;101446.25;5007771;28;20029;-60
2022/04/19 07:14:06;;;;;;;26.40;15.38;;;;;;;12.05;56.00;101442.94;5015941;28;20060;-61
2022/04/19 07:16:32;;;;;;;25.70;14.43;;;;;;;12.14;55.88;101443.75;5008674;28;20053;-60
2022/04/19 07:18:58;;;;;;;22.88;13.68;;;;;;;12.17;55.36;101438.13;5010146;28;20022;-60
2022/04/19 07:26:52;;;;;;;24.55;13.38;;;;;;;12.48;54.75;101448.94;5016100;28;20044;-61
2022/04/19 07:29:20;;;;;;;19.85;13.10;;;;;;;12.59;54.65;101445.06;5008223;28;20059;-61
2022/04/19 07:31:47;;;;;;;19.90;13.20;;;;;;;12.67;54.26;101448.53;5021435;28;20026;-61
2022/04/19 07:34:13;;;;;;;22.13;13.93;;;;;;;12.75;53.79;101445.06;5013028;28;20120;-61
2022/04/19 07:36:42;;;;;;;22.02;13.65;;;;;;;12.93;53.73;101447.50;5020893;28;20025;-61
2022/04/19 07:39:11;;;;;;;18.65;11.40;;;;;;;13.09;53.96;101447.47;5007239;28;20056;-62
2022/04/19 07:41:37;;;;;;;20.58;12.00;;;;;;;13.23;52.92;101454.75;5011824;28;20057;-62
2022/04/19 07:44:08;;;;;;;19.73;11.38;;;;;;;13.39;53.31;101453.03;5009820;28;20030;-61
2022/04/19 07:46:34;;;;;;;19.98;11.98;;;;;;;13.54;52.98;101446.78;5007816;28;20022;-61
2022/04/19 07:49:01;;;;;;;17.73;11.38;;;;;;;13.70;52.58;101448.53;5012085;28;20440;-61
2022/04/19 07:51:26;;;;;;;22.98;11.90;;;;;;;13.81;51.71;101447.28;5018015;28;20021;-61
2022/04/19 07:53:52;;;;;;;17.92;11.18;;;;;;;13.92;52.03;101449.56;5019537;28;20477;-61
2022/04/19 07:56:18;;;;;;;20.58;10.93;;;;;;;14.11;51.22;101442.91;5010198;28;20080;-61
2022/04/19 07:58:45;;;;;;;18.48;10.55;;;;;;;14.15;49.97;101450.38;5013762;28;20037;-61
2022/04/19 08:01:10;;;;;;;18.00;10.63;;;;;;;14.26;49.85;101451.81;5014951;28;20025;-61
2022/04/19 08:03:36;;;;;;;20.17;10.75;;;;;;;14.44;50.09;101451.50;5026087;28;20361;-61
2022/04/19 08:06:01;;;;;;;15.23;10.18;;;;;;;14.63;49.69;101451.00;5020272;28;20022;-61
2022/04/19 08:08:27;;;;;;;17.92;9.18;;;;;;;14.77;49.18;101455.56;5007270;28;20091;-61
2022/04/19 08:10:52;;;;;;;14.07;9.00;;;;;;;14.87;48.46;101456.09;5007489;28;20061;-61
2022/04/19 08:13:17;;;;;;;14.52;8.07;;;;;;;15.02;48.29;101450.75;5008122;28;20040;-61
2022/04/19 08:15:43;;;;;;;35.40;8.65;;;;;;;15.17;47.45;101453.44;5017801;28;20026;-61
2022/04/19 08:18:13;;;;;;;11.25;7.57;;;;;;;15.25;46.78;101449.81;5006984;28;20025;-61
2022/04/19 08:20:39;;;;;;;14.63;8.25;;;;;;;15.35;46.57;101445.03;5006904;28;20033;-62
2022/04/19 08:23:04;;;;;;;13.30;8.13;;;;;;;15.38;46.22;101458.84;5013431;28;20026;-61
2022/04/19 08:25:30;;;;;;;12.98;7.57;;;;;;;15.43;45.72;101447.59;5016677;28;20041;-61
2022/04/19 08:27:55;;;;;;;12.68;7.70;;;;;;;15.44;44.62;101442.03;5012846;28;20018;-61
2022/04/19 08:30:21;;;;;;;10.07;6.10;;;;;;;15.42;44.07;101444.09;5013885;28;20040;-62
2022/04/19 08:32:46;;;;;;;10.13;6.60;;;;;;;15.48;44.50;101439.81;5008537;28;20050;-61
2022/04/19 08:35:12;;;;;;;12.15;6.75;;;;;;;15.43;43.36;101436.88;5014570;28;20057;-61
2022/04/19 08:37:38;;;;;;;12.60;6.50;;;;;;;15.53;43.87;101437.41;5012240;28;20028;-61
2022/04/19 08:40:09;;;;;;;17.80;7.75;;;;;;;15.60;43.59;101441.00;5014165;28;20412;-61
2022/04/19 08:42:35;;;;;;;13.20;6.75;;;;;;;15.69;43.69;101439.06;5010030;28;20036;-61
2022/04/19 08:45:02;;;;;;;9.85;6.00;;;;;;;15.79;43.85;101440.41;5007479;28;20022;-62
2022/04/19 08:47:30;;;;;;;16.58;6.28;;;;;;;15.96;43.25;101437.50;5018449;28;20625;-61
2022/04/19 08:49:55;;;;;;;9.82;5.65;;;;;;;16.00;42.95;101436.09;5014052;28;20026;-62
2022/04/19 08:52:20;;;;;;;8.07;5.20;;;;;;;16.14;43.40;101432.50;5019909;28;20041;-61
2022/04/19 08:57:31;;;;;;;11.15;5.72;;;;;;;16.20;42.10;101431.75;5007577;28;20109;-61
2022/04/19 09:00:02;;;;;;;10.80;5.57;;;;;;;16.19;40.99;101439.94;5025242;28;20115;-61
2022/04/19 09:02:29;;;;;;;11.10;5.90;;;;;;;16.21;40.99;101443.28;5018186;28;20033;-62
2022/04/19 09:05:10;;;;;;;10.57;5.68;;;;;;;16.38;41.42;101440.13;5016943;28;20049;-62
2022/04/19 09:07:36;;;;;;;10.18;5.75;;;;;;;16.53;41.34;101442.72;5012278;28;20030;-61
2022/04/19 09:10:02;;;;;;;11.10;6.30;;;;;;;16.61;41.51;101439.06;5020159;28;20036;-61
2022/04/19 09:12:28;;;;;;;14.68;6.32;;;;;;;16.67;41.27;101436.47;5019125;28;20069;-61
2022/04/19 09:15:03;;;;;;;14.70;6.90;;;;;;;16.73;41.30;101432.16;5018970;28;20045;-62
2022/04/19 09:17:36;;;;;;;11.85;6.60;;;;;;;16.78;40.41;101428.91;5009418;28;20073;-62
2022/04/19 09:20:19;;;;;;;14.43;6.30;;;;;;;17.00;40.56;101425.94;5015571;28;20030;-62
2022/04/19 09:22:48;;;;;;;11.60;5.90;;;;;;;17.21;40.90;101426.84;5023817;28;20100;-61
2022/04/19 09:25:25;;;;;;;10.70;6.32;;;;;;;17.22;39.95;101421.28;5019177;28;20018;-62
2022/04/19 09:27:54;;;;;;;10.27;6.30;;;;;;;17.37;40.10;101418.47;5022932;28;20052;-61
2022/04/19 09:30:23;;;;;;;10.75;6.35;;;;;;;17.49;39.61;101421.38;5015183;28;20346;-62
2022/04/19 09:33:14;;;;;;;16.02;6.80;;;;;;;17.67;39.07;101423.53;5027956;28;20040;-62
2022/04/19 09:35:45;;;;;;;11.45;6.60;;;;;;;17.81;39.24;101430.59;5017249;28;20064;-61
2022/04/19 09:38:12;;;;;;;14.77;7.18;;;;;;;17.79;38.59;101424.59;5014287;28;20018;-61
2022/04/19 09:40:55;;;;;;;16.27;7.03;;;;;;;17.92;38.90;101419.25;5022729;28;20540;-61
2022/04/19 09:43:21;;;;;;;16.20;6.60;;;;;;;17.92;38.70;101412.00;5016536;28;20037;-61
2022/04/19 09:45:51;;;;;;;12.93;6.97;;;;;;;18.06;38.24;101417.41;5019160;28;20434;-62
2022/04/19 09:48:40;;;;;;;10.60;6.55;;;;;;;18.19;38.44;101417.41;5017319;28;20124;-61
2022/04/19 09:51:12;;;;;;;;;;;;;;;18.25;37.40;101414.75;5008217;28;20069;-61
2022/04/19 09:53:44;;;;;;;11.50;7.03;;;;;;;18.04;37.25;101414.94;5017616;28;19913;-62
2022/04/19 09:56:17;;;;;;;12.95;7.03;;;;;;;18.30;38.35;101415.97;5016838;28;20421;-62
2022/04/19 09:58:47;;;;;;;11.90;7.07;;;;;;;18.43;37.91;101413.25;5019317;28;20495;-61
2022/04/19 10:09:25;;;;;;;13.27;7.28;;;;;;;18.88;37.50;101411.56;5023115;28;20505;-61
2022/04/19 10:11:54;;;;;;;16.00;6.97;;;;;;;18.97;37.36;101409.47;5016023;28;20068;-62
2022/04/19 10:14:21;;;;;;;30.50;7.63;;;;;;;18.94;36.89;101409.91;5008136;28;20025;-62
2022/04/19 10:16:48;;;;;;;12.75;6.43;;;;;;;18.95;36.46;101407.00;5009338;28;20477;-61
2022/04/19 10:19:15;;;;;;;10.82;6.18;;;;;;;19.02;35.82;101405.09;5020209;28;20025;-62
2022/04/19 10:21:42;;;;;;;15.77;5.88;;;;;;;19.19;35.48;101400.06;5015516;28;20411;-62
2022/04/19 10:24:15;;;;;;;12.98;6.35;;;;;;;19.30;35.18;101398.56;5009611;28;20505;-62
2022/04/19 10:26:49;;;;;;;14.45;7.32;;;;;;;19.12;34.78;101399.28;5015789;28;20112;-62
2022/04/19 10:29:20;;;;;;;14.55;7.22;;;;;;;19.21;35.62;101405.25;5026217;28;20026;-62
2022/04/19 10:32:06;;;;;;;11.25;6.90;;;;;;;19.32;35.29;101410.78;5027014;28;20297;-62
2022/04/19 10:34:34;;;;;;;9.48;5.95;;;;;;;19.48;35.94;101410.28;5013620;28;20040;-61
2022/04/19 10:37:12;;;;;;;11.03;6.27;;;;;;;19.57;34.90;101408.19;5009813;28;20572;-62
2022/04/19 10:39:45;;;;;;;16.52;6.93;;;;;;;19.58;35.32;101393.69;5009781;28;20382;-61
2022/04/19 10:42:38;;;;;;;10.23;5.85;;;;;;;19.75;35.94;101412.88;5020709;28;20041;-61
2022/04/19 10:45:13;;;;;;;12.57;6.30;;;;;;;19.95;35.21;101408.19;5010475;28;20034;-62
2022/04/19 10:47:53;;;;;;;13.88;6.68;;;;;;;19.79;35.23;101403.31;5009111;28;20377;-62
2022/04/19 10:50:33;;;;;;;21.00;7.30;;;;;;;19.57;34.77;101393.91;5005365;28;20022;-62
2022/04/19 10:53:03;;;;;;;16.60;5.90;;;;;;;19.81;36.13;101398.53;5015948;28;20497;-62
2022/04/19 10:55:33;;;;;;;9.93;5.90;;;;;;;19.95;34.88;101386.63;5009328;28;20026;-62
2022/04/19 10:58:17;;;;;;;12.25;5.90;;;;;;;20.14;35.58;101387.47;5010762;28;20509;-62
2022/04/19 11:00:51;;;;;;;13.30;6.20;;;;;;;20.19;34.39;101397.59;5014984;28;20088;-62
2022/04/19 11:03:39;;;;;;;10.00;5.55;;;;;;;20.19;33.75;101387.63;5009742;28;20033;-62
2022/04/19 11:06:28;;;;;;;10.30;5.78;;;;;;;20.06;33.91;101385.06;5018367;28;20488;-62
2022/04/19 11:09:14;;;;;;;15.07;5.32;;;;;;;20.11;33.76;101361.78;5012244;28;20022;-62
2022/04/19 11:11:45;;;;;;;11.27;5.20;;;;;;;20.27;33.63;101376.59;5012553;28;20148;-61
2022/04/19 11:14:35;;;;;;;10.98;5.55;;;;;;;20.35;33.18;101376.31;5015868;28;20049;-62
2022/04/19 11:17:27;;;;;;;8.32;4.85;;;;;;;20.44;32.75;101379.56;5008644;28;20083;-62
2022/04/19 11:20:05;;;;;;;10.52;6.05;;;;;;;20.55;33.04;101364.53;5008028;28;20061;-62
2022/04/19 11:22:44;;;;;;;11.48;5.72;;;;;;;20.78;34.03;101363.84;5005687;28;20041;-62
2022/04/19 11:25:09;;;;;;;9.40;5.20;;;;;;;20.80;33.73;101367.13;5008546;28;20730;-62
2022/04/19 11:27:55;;;;;;;12.68;6.00;;;;;;;20.91;33.21;101361.00;5012526;28;20052;-62
2022/04/19 11:30:21;;;;;;;9.60;5.35;;;;;;;20.91;32.54;101364.53;5003833;28;20848;-62
2022/04/19 11:32:55;;;;;;;10.23;5.45;;;;;;;20.63;31.54;101362.34;5014238;28;20025;-62
2022/04/19 11:35:21;;;;;;;11.10;4.97;;;;;;;20.75;32.82;101364.28;5019264;28;20277;-62
2022/04/19 11:37:47;;;;;;;11.88;5.03;;;;;;;20.76;32.06;101363.25;5022215;28;20029;-62
2022/04/19 11:48:44;;;;;;;12.60;4.90;;;;;;;20.93;32.24;101356.19;5016188;28;20417;-62
2022/04/19 11:51:11;;;;;;;9.60;5.22;;;;;;;20.97;32.35;101366.31;5019836;28;20405;-62
2022/04/19 11:53:36;;;;;;;10.35;4.70;;;;;;;20.96;31.58;101353.88;5014690;28;20137;-62
2022/04/19 11:56:02;;;;;;;8.10;4.63;;;;;;;21.05;31.51;101357.06;5015366;28;20053;-62
2022/04/19 11:58:28;;;;;;;9.82;4.85;;;;;;;21.06;31.98;101356.03;5018184;28;20017;-62
2022/04/19 12:00:58;;;;;;;11.85;5.22;;;;;;;21.10;32.08;101351.81;5014795;28;20030;-62